sensor_id;sensor_type;location;lat;lon;timestamp;P1;durP1;ratioP1;P2;durP2;ratioP2
3503;SDS011;1766;53.490;10.174;2022-10-31T00:00:44;38.23;;;24.50;;
3503;SDS011;1766;53.490;10.174;2022-10-31T00:02:46;34.10;;;22.83;;
3503;SDS011;1766;53.490;10.174;2022-10-31T00:04:48;34.00;;;22.40;;
3503;SDS011;1766;53.490;10.174;2022-10-31T00:06:50;31.03;;;21.50;;
3503;SDS011;1766;53.490;10.174;2022-10-31T00:08:52;35.03;;;22.03;;
3503;SDS011;1766;53.490;10.174;2022-10-31T00:10:56;32.57;;;22.13;;
3503;SDS011;1766;53.490;10.174;2022-10-31T00:12:59;34.30;;;22.33;;
3503;SDS011;1766;53.490;10.174;2022-10-31T00:15:00;32.50;;;21.77;;
3503;SDS011;1766;53.490;10.174;2022-10-31T00:17:02;28.77;;;21.13;;
3503;SDS011;1766;53.490;10.174;2022-10-31T00:19:05;31.10;;;19.93;;
3503;SDS011;1766;53.490;10.174;2022-10-31T00:21:07;33.33;;;21.57;;
3503;SDS011;1766;53.490;10.174;2022-10-31T00:23:10;34.47;;;21.33;;
3503;SDS011;1766;53.490;10.174;2022-10-31T00:25:12;31.33;;;21.07;;
3503;SDS011;1766;53.490;10.174;2022-10-31T00:27:16;27.43;;;19.63;;
3503;SDS011;1766;53.490;10.174;2022-10-31T00:29:20;29.17;;;19.47;;
3503;SDS011;1766;53.490;10.174;2022-10-31T00:31:21;26.80;;;19.00;;
3503;SDS011;1766;53.490;10.174;2022-10-31T00:33:23;28.37;;;18.67;;
3503;SDS011;1766;53.490;10.174;2022-10-31T00:35:25;30.93;;;20.07;;
3503;SDS011;1766;53.490;10.174;2022-10-31T00:37:27;25.57;;;18.07;;
3503;SDS011;1766;53.490;10.174;2022-10-31T00:39:31;23.93;;;17.93;;
3503;SDS011;1766;53.490;10.174;2022-10-31T00:41:32;26.40;;;18.17;;
3503;SDS011;1766;53.490;10.174;2022-10-31T00:43:34;26.77;;;18.67;;
3503;SDS011;1766;53.490;10.174;2022-10-31T00:45:37;27.87;;;18.70;;
3503;SDS011;1766;53.490;10.174;2022-10-31T00:47:39;26.77;;;17.70;;
3503;SDS011;1766;53.490;10.174;2022-10-31T00:49:41;25.90;;;18.40;;
3503;SDS011;1766;53.490;10.174;2022-10-31T00:51:43;24.17;;;17.37;;
3503;SDS011;1766;53.490;10.174;2022-10-31T00:53:45;30.80;;;19.30;;
3503;SDS011;1766;53.490;10.174;2022-10-31T00:55:46;27.60;;;16.93;;
3503;SDS011;1766;53.490;10.174;2022-10-31T00:57:48;24.33;;;17.90;;
3503;SDS011;1766;53.490;10.174;2022-10-31T00:59:50;25.23;;;17.50;;
3503;SDS011;1766;53.490;10.174;2022-10-31T01:01:53;27.70;;;18.57;;
3503;SDS011;1766;53.490;10.174;2022-10-31T01:03:55;24.20;;;16.37;;
3503;SDS011;1766;53.490;10.174;2022-10-31T01:05:57;22.97;;;16.03;;
3503;SDS011;1766;53.490;10.174;2022-10-31T01:08:01;23.60;;;15.17;;
3503;SDS011;1766;53.490;10.174;2022-10-31T01:10:03;24.10;;;17.40;;
3503;SDS011;1766;53.490;10.174;2022-10-31T01:12:06;24.57;;;16.80;;
3503;SDS011;1766;53.490;10.174;2022-10-31T01:14:08;23.53;;;16.23;;
3503;SDS011;1766;53.490;10.174;2022-10-31T01:16:12;24.27;;;17.43;;
3503;SDS011;1766;53.490;10.174;2022-10-31T01:18:27;21.83;;;15.77;;
3503;SDS011;1766;53.490;10.174;2022-10-31T01:20:29;24.97;;;17.23;;
3503;SDS011;1766;53.490;10.174;2022-10-31T01:22:31;24.63;;;17.30;;
3503;SDS011;1766;53.490;10.174;2022-10-31T01:24:33;29.50;;;17.63;;
3503;SDS011;1766;53.490;10.174;2022-10-31T01:26:35;21.73;;;15.77;;
3503;SDS011;1766;53.490;10.174;2022-10-31T01:28:37;26.20;;;17.37;;
3503;SDS011;1766;53.490;10.174;2022-10-31T01:30:45;25.40;;;16.57;;
3503;SDS011;1766;53.490;10.174;2022-10-31T01:32:47;35.10;;;17.93;;
3503;SDS011;1766;53.490;10.174;2022-10-31T01:34:50;38.30;;;18.47;;
3503;SDS011;1766;53.490;10.174;2022-10-31T01:36:52;29.63;;;16.40;;
3503;SDS011;1766;53.490;10.174;2022-10-31T01:38:55;26.47;;;16.70;;
3503;SDS011;1766;53.490;10.174;2022-10-31T01:40:59;20.93;;;16.37;;
3503;SDS011;1766;53.490;10.174;2022-10-31T01:43:01;29.20;;;16.50;;
3503;SDS011;1766;53.490;10.174;2022-10-31T01:45:03;27.33;;;16.73;;
3503;SDS011;1766;53.490;10.174;2022-10-31T01:47:07;27.03;;;16.03;;
3503;SDS011;1766;53.490;10.174;2022-10-31T01:49:14;25.10;;;16.10;;
3503;SDS011;1766;53.490;10.174;2022-10-31T01:51:25;28.30;;;18.73;;
3503;SDS011;1766;53.490;10.174;2022-10-31T01:53:31;22.87;;;16.77;;
3503;SDS011;1766;53.490;10.174;2022-10-31T01:55:33;25.60;;;17.73;;
3503;SDS011;1766;53.490;10.174;2022-10-31T01:57:41;22.93;;;16.90;;
3503;SDS011;1766;53.490;10.174;2022-10-31T01:59:47;27.67;;;17.37;;
3503;SDS011;1766;53.490;10.174;2022-10-31T02:01:53;25.23;;;15.97;;
3503;SDS011;1766;53.490;10.174;2022-10-31T02:03:55;27.77;;;17.57;;
3503;SDS011;1766;53.490;10.174;2022-10-31T02:05:57;27.50;;;18.33;;
3503;SDS011;1766;53.490;10.174;2022-10-31T02:08:03;33.43;;;19.30;;
3503;SDS011;1766;53.490;10.174;2022-10-31T02:10:08;27.57;;;17.87;;
3503;SDS011;1766;53.490;10.174;2022-10-31T02:12:10;27.23;;;17.77;;
3503;SDS011;1766;53.490;10.174;2022-10-31T02:14:16;27.30;;;17.07;;
3503;SDS011;1766;53.490;10.174;2022-10-31T02:16:18;22.63;;;16.40;;
3503;SDS011;1766;53.490;10.174;2022-10-31T02:18:30;21.53;;;15.53;;
3503;SDS011;1766;53.490;10.174;2022-10-31T02:20:33;24.80;;;15.87;;
3503;SDS011;1766;53.490;10.174;2022-10-31T02:22:52;24.13;;;16.20;;
3503;SDS011;1766;53.490;10.174;2022-10-31T02:25:32;22.00;;;14.40;;
3503;SDS011;1766;53.490;10.174;2022-10-31T02:27:57;22.77;;;15.80;;
3503;SDS011;1766;53.490;10.174;2022-10-31T02:30:18;20.83;;;15.83;;
3503;SDS011;1766;53.490;10.174;2022-10-31T02:32:27;23.47;;;14.90;;
3503;SDS011;1766;53.490;10.174;2022-10-31T02:34:41;30.93;;;14.83;;
3503;SDS011;1766;53.490;10.174;2022-10-31T02:36:56;23.53;;;14.80;;
3503;SDS011;1766;53.490;10.174;2022-10-31T02:39:06;20.90;;;15.00;;
3503;SDS011;1766;53.490;10.174;2022-10-31T02:41:18;24.80;;;14.80;;
3503;SDS011;1766;53.490;10.174;2022-10-31T02:43:31;25.80;;;15.33;;
3503;SDS011;1766;53.490;10.174;2022-10-31T02:45:43;22.43;;;14.80;;
3503;SDS011;1766;53.490;10.174;2022-10-31T02:47:52;27.07;;;15.93;;
3503;SDS011;1766;53.490;10.174;2022-10-31T02:49:59;22.83;;;15.30;;
3503;SDS011;1766;53.490;10.174;2022-10-31T02:52:13;20.77;;;14.80;;
3503;SDS011;1766;53.490;10.174;2022-10-31T02:54:19;24.30;;;16.40;;
3503;SDS011;1766;53.490;10.174;2022-10-31T02:56:23;22.33;;;16.43;;
3503;SDS011;1766;53.490;10.174;2022-10-31T02:58:26;35.43;;;21.83;;
3503;SDS011;1766;53.490;10.174;2022-10-31T03:00:33;32.83;;;18.33;;
3503;SDS011;1766;53.490;10.174;2022-10-31T03:02:47;26.57;;;18.30;;
3503;SDS011;1766;53.490;10.174;2022-10-31T03:05:08;31.00;;;19.53;;
3503;SDS011;1766;53.490;10.174;2022-10-31T03:07:25;34.50;;;20.17;;
3503;SDS011;1766;53.490;10.174;2022-10-31T03:09:38;29.60;;;17.87;;
3503;SDS011;1766;53.490;10.174;2022-10-31T03:11:49;33.97;;;18.40;;
3503;SDS011;1766;53.490;10.174;2022-10-31T03:14:00;31.00;;;18.83;;
3503;SDS011;1766;53.490;10.174;2022-10-31T03:16:10;33.63;;;17.80;;
3503;SDS011;1766;53.490;10.174;2022-10-31T03:18:18;29.83;;;17.33;;
3503;SDS011;1766;53.490;10.174;2022-10-31T03:20:28;37.37;;;18.77;;
3503;SDS011;1766;53.490;10.174;2022-10-31T03:22:35;35.93;;;18.60;;
3503;SDS011;1766;53.490;10.174;2022-10-31T03:24:41;31.77;;;17.27;;
3503;SDS011;1766;53.490;10.174;2022-10-31T03:26:46;25.27;;;15.93;;
3503;SDS011;1766;53.490;10.174;2022-10-31T03:28:52;33.17;;;18.90;;
3503;SDS011;1766;53.490;10.174;2022-10-31T03:30:58;34.10;;;16.27;;
3503;SDS011;1766;53.490;10.174;2022-10-31T03:33:00;28.53;;;16.00;;
3503;SDS011;1766;53.490;10.174;2022-10-31T03:35:08;27.67;;;16.50;;
3503;SDS011;1766;53.490;10.174;2022-10-31T03:37:12;40.97;;;22.40;;
3503;SDS011;1766;53.490;10.174;2022-10-31T03:39:18;38.60;;;20.67;;
3503;SDS011;1766;53.490;10.174;2022-10-31T03:41:23;34.23;;;18.17;;
3503;SDS011;1766;53.490;10.174;2022-10-31T03:43:30;32.40;;;17.00;;
3503;SDS011;1766;53.490;10.174;2022-10-31T03:45:39;27.37;;;16.57;;
3503;SDS011;1766;53.490;10.174;2022-10-31T03:47:45;29.70;;;17.87;;
3503;SDS011;1766;53.490;10.174;2022-10-31T03:49:46;34.13;;;17.20;;
3503;SDS011;1766;53.490;10.174;2022-10-31T03:51:51;29.27;;;17.57;;
3503;SDS011;1766;53.490;10.174;2022-10-31T03:54:01;24.13;;;16.27;;
3503;SDS011;1766;53.490;10.174;2022-10-31T03:56:10;27.53;;;17.17;;
3503;SDS011;1766;53.490;10.174;2022-10-31T03:58:20;28.77;;;16.60;;
3503;SDS011;1766;53.490;10.174;2022-10-31T04:00:26;24.97;;;16.03;;
3503;SDS011;1766;53.490;10.174;2022-10-31T04:02:31;33.87;;;17.47;;
3503;SDS011;1766;53.490;10.174;2022-10-31T04:04:35;23.43;;;15.40;;
3503;SDS011;1766;53.490;10.174;2022-10-31T04:06:38;30.50;;;17.10;;
3503;SDS011;1766;53.490;10.174;2022-10-31T04:08:45;28.20;;;17.13;;
3503;SDS011;1766;53.490;10.174;2022-10-31T04:10:52;41.77;;;19.53;;
3503;SDS011;1766;53.490;10.174;2022-10-31T04:12:57;35.67;;;19.27;;
3503;SDS011;1766;53.490;10.174;2022-10-31T04:15:05;42.83;;;19.10;;
3503;SDS011;1766;53.490;10.174;2022-10-31T04:17:09;34.57;;;20.03;;
3503;SDS011;1766;53.490;10.174;2022-10-31T04:19:14;33.87;;;17.87;;
3503;SDS011;1766;53.490;10.174;2022-10-31T04:21:16;34.77;;;18.87;;
3503;SDS011;1766;53.490;10.174;2022-10-31T04:23:19;41.57;;;20.50;;
3503;SDS011;1766;53.490;10.174;2022-10-31T04:25:24;37.20;;;19.77;;
3503;SDS011;1766;53.490;10.174;2022-10-31T04:27:26;41.00;;;21.07;;
3503;SDS011;1766;53.490;10.174;2022-10-31T04:29:28;37.83;;;19.90;;
3503;SDS011;1766;53.490;10.174;2022-10-31T04:31:30;39.67;;;20.40;;
3503;SDS011;1766;53.490;10.174;2022-10-31T04:33:31;46.90;;;20.20;;
3503;SDS011;1766;53.490;10.174;2022-10-31T04:35:33;42.97;;;20.77;;
3503;SDS011;1766;53.490;10.174;2022-10-31T04:37:35;41.07;;;20.77;;
3503;SDS011;1766;53.490;10.174;2022-10-31T04:39:37;43.67;;;19.97;;
3503;SDS011;1766;53.490;10.174;2022-10-31T04:41:40;49.77;;;23.40;;
3503;SDS011;1766;53.490;10.174;2022-10-31T04:43:41;48.73;;;23.10;;
3503;SDS011;1766;53.490;10.174;2022-10-31T04:45:43;53.27;;;24.00;;
3503;SDS011;1766;53.490;10.174;2022-10-31T04:47:45;45.60;;;22.37;;
3503;SDS011;1766;53.490;10.174;2022-10-31T04:49:47;58.67;;;24.03;;
3503;SDS011;1766;53.490;10.174;2022-10-31T04:51:49;48.90;;;22.93;;
3503;SDS011;1766;53.490;10.174;2022-10-31T04:53:50;52.17;;;23.50;;
3503;SDS011;1766;53.490;10.174;2022-10-31T04:55:52;41.53;;;22.13;;
3503;SDS011;1766;53.490;10.174;2022-10-31T04:57:55;52.13;;;23.43;;
3503;SDS011;1766;53.490;10.174;2022-10-31T04:59:57;55.33;;;24.40;;
3503;SDS011;1766;53.490;10.174;2022-10-31T05:01:59;65.60;;;25.30;;
3503;SDS011;1766;53.490;10.174;2022-10-31T05:04:00;58.40;;;25.47;;
3503;SDS011;1766;53.490;10.174;2022-10-31T05:06:02;45.60;;;23.87;;
3503;SDS011;1766;53.490;10.174;2022-10-31T05:08:05;57.80;;;25.47;;
3503;SDS011;1766;53.490;10.174;2022-10-31T05:10:07;45.63;;;24.67;;
3503;SDS011;1766;53.490;10.174;2022-10-31T05:12:10;48.07;;;25.70;;
3503;SDS011;1766;53.490;10.174;2022-10-31T05:14:13;51.87;;;26.13;;
3503;SDS011;1766;53.490;10.174;2022-10-31T05:16:15;48.07;;;25.80;;
3503;SDS011;1766;53.490;10.174;2022-10-31T05:18:30;47.97;;;25.23;;
3503;SDS011;1766;53.490;10.174;2022-10-31T05:20:32;55.23;;;28.17;;
3503;SDS011;1766;53.490;10.174;2022-10-31T05:22:34;66.70;;;28.43;;
3503;SDS011;1766;53.490;10.174;2022-10-31T05:24:36;56.03;;;28.30;;
3503;SDS011;1766;53.490;10.174;2022-10-31T05:26:38;52.20;;;26.27;;
3503;SDS011;1766;53.490;10.174;2022-10-31T05:28:40;70.23;;;29.23;;
3503;SDS011;1766;53.490;10.174;2022-10-31T05:30:43;66.07;;;29.73;;
3503;SDS011;1766;53.490;10.174;2022-10-31T05:32:46;69.70;;;28.77;;
3503;SDS011;1766;53.490;10.174;2022-10-31T05:34:49;52.87;;;27.47;;
3503;SDS011;1766;53.490;10.174;2022-10-31T05:36:51;53.90;;;27.77;;
3503;SDS011;1766;53.490;10.174;2022-10-31T05:38:53;63.33;;;29.53;;
3503;SDS011;1766;53.490;10.174;2022-10-31T05:40:57;60.37;;;28.33;;
3503;SDS011;1766;53.490;10.174;2022-10-31T05:43:00;62.10;;;29.33;;
3503;SDS011;1766;53.490;10.174;2022-10-31T05:45:02;57.43;;;29.07;;
3503;SDS011;1766;53.490;10.174;2022-10-31T05:47:06;71.80;;;30.60;;
3503;SDS011;1766;53.490;10.174;2022-10-31T05:49:08;61.70;;;28.30;;
3503;SDS011;1766;53.490;10.174;2022-10-31T05:51:09;61.83;;;28.13;;
3503;SDS011;1766;53.490;10.174;2022-10-31T05:53:13;59.97;;;28.17;;
3503;SDS011;1766;53.490;10.174;2022-10-31T05:55:15;59.93;;;28.43;;
3503;SDS011;1766;53.490;10.174;2022-10-31T05:57:17;58.03;;;28.43;;
3503;SDS011;1766;53.490;10.174;2022-10-31T05:59:19;61.03;;;29.30;;
3503;SDS011;1766;53.490;10.174;2022-10-31T06:01:20;61.57;;;28.30;;
3503;SDS011;1766;53.490;10.174;2022-10-31T06:03:25;64.40;;;28.93;;
3503;SDS011;1766;53.490;10.174;2022-10-31T06:05:27;57.93;;;28.13;;
3503;SDS011;1766;53.490;10.174;2022-10-31T06:07:32;69.27;;;29.10;;
3503;SDS011;1766;53.490;10.174;2022-10-31T06:09:35;56.37;;;29.67;;
3503;SDS011;1766;53.490;10.174;2022-10-31T06:11:37;57.93;;;28.57;;
3503;SDS011;1766;53.490;10.174;2022-10-31T06:13:39;64.33;;;29.43;;
3503;SDS011;1766;53.490;10.174;2022-10-31T06:15:41;58.23;;;28.63;;
3503;SDS011;1766;53.490;10.174;2022-10-31T06:17:45;68.60;;;30.73;;
3503;SDS011;1766;53.490;10.174;2022-10-31T06:19:48;56.30;;;29.30;;
3503;SDS011;1766;53.490;10.174;2022-10-31T06:21:50;63.47;;;30.40;;
3503;SDS011;1766;53.490;10.174;2022-10-31T06:23:52;57.50;;;29.20;;
3503;SDS011;1766;53.490;10.174;2022-10-31T06:25:54;74.87;;;31.23;;
3503;SDS011;1766;53.490;10.174;2022-10-31T06:27:55;58.67;;;29.70;;
3503;SDS011;1766;53.490;10.174;2022-10-31T06:30:00;61.47;;;29.67;;
3503;SDS011;1766;53.490;10.174;2022-10-31T06:32:02;75.53;;;29.63;;
3503;SDS011;1766;53.490;10.174;2022-10-31T06:34:04;61.07;;;30.17;;
3503;SDS011;1766;53.490;10.174;2022-10-31T06:36:07;62.57;;;30.03;;
3503;SDS011;1766;53.490;10.174;2022-10-31T06:38:10;65.33;;;30.77;;
3503;SDS011;1766;53.490;10.174;2022-10-31T06:40:11;76.97;;;32.73;;
3503;SDS011;1766;53.490;10.174;2022-10-31T06:42:15;69.80;;;31.83;;
3503;SDS011;1766;53.490;10.174;2022-10-31T06:44:17;61.93;;;30.63;;
3503;SDS011;1766;53.490;10.174;2022-10-31T06:46:18;63.63;;;30.00;;
3503;SDS011;1766;53.490;10.174;2022-10-31T06:48:20;80.73;;;31.17;;
3503;SDS011;1766;53.490;10.174;2022-10-31T06:50:23;78.93;;;32.00;;
3503;SDS011;1766;53.490;10.174;2022-10-31T06:52:26;69.03;;;30.87;;
3503;SDS011;1766;53.490;10.174;2022-10-31T06:54:31;92.73;;;32.93;;
3503;SDS011;1766;53.490;10.174;2022-10-31T06:56:32;82.10;;;30.57;;
3503;SDS011;1766;53.490;10.174;2022-10-31T06:58:35;100.67;;;34.30;;
3503;SDS011;1766;53.490;10.174;2022-10-31T07:00:37;117.53;;;34.57;;
3503;SDS011;1766;53.490;10.174;2022-10-31T07:02:43;105.13;;;35.80;;
3503;SDS011;1766;53.490;10.174;2022-10-31T07:04:53;139.73;;;36.53;;
3503;SDS011;1766;53.490;10.174;2022-10-31T07:06:54;100.97;;;34.27;;
3503;SDS011;1766;53.490;10.174;2022-10-31T07:08:58;193.50;;;39.43;;
3503;SDS011;1766;53.490;10.174;2022-10-31T07:11:00;246.47;;;40.93;;
3503;SDS011;1766;53.490;10.174;2022-10-31T07:13:02;236.23;;;39.63;;
3503;SDS011;1766;53.490;10.174;2022-10-31T07:15:06;144.77;;;37.43;;
3503;SDS011;1766;53.490;10.174;2022-10-31T07:17:08;185.37;;;38.23;;
3503;SDS011;1766;53.490;10.174;2022-10-31T07:19:10;176.07;;;37.47;;
3503;SDS011;1766;53.490;10.174;2022-10-31T07:21:12;163.37;;;36.83;;
3503;SDS011;1766;53.490;10.174;2022-10-31T07:23:16;168.37;;;37.30;;
3503;SDS011;1766;53.490;10.174;2022-10-31T07:25:19;150.83;;;35.03;;
3503;SDS011;1766;53.490;10.174;2022-10-31T07:27:21;174.80;;;36.53;;
3503;SDS011;1766;53.490;10.174;2022-10-31T07:29:23;158.27;;;36.83;;
3503;SDS011;1766;53.490;10.174;2022-10-31T07:31:24;147.83;;;36.37;;
3503;SDS011;1766;53.490;10.174;2022-10-31T07:33:26;122.67;;;35.97;;
3503;SDS011;1766;53.490;10.174;2022-10-31T07:35:30;141.83;;;35.00;;
3503;SDS011;1766;53.490;10.174;2022-10-31T07:37:35;111.57;;;30.00;;
3503;SDS011;1766;53.490;10.174;2022-10-31T07:39:37;145.87;;;33.57;;
3503;SDS011;1766;53.490;10.174;2022-10-31T07:41:40;124.20;;;29.87;;
3503;SDS011;1766;53.490;10.174;2022-10-31T07:43:42;123.47;;;30.60;;
3503;SDS011;1766;53.490;10.174;2022-10-31T07:45:48;100.13;;;28.57;;
3503;SDS011;1766;53.490;10.174;2022-10-31T07:47:52;104.70;;;31.20;;
3503;SDS011;1766;53.490;10.174;2022-10-31T07:49:54;126.53;;;42.97;;
3503;SDS011;1766;53.490;10.174;2022-10-31T07:51:56;153.17;;;55.37;;
3503;SDS011;1766;53.490;10.174;2022-10-31T07:53:58;104.63;;;29.97;;
3503;SDS011;1766;53.490;10.174;2022-10-31T07:56:01;98.10;;;29.87;;
3503;SDS011;1766;53.490;10.174;2022-10-31T07:58:04;106.33;;;31.00;;
3503;SDS011;1766;53.490;10.174;2022-10-31T08:00:08;103.63;;;31.07;;
3503;SDS011;1766;53.490;10.174;2022-10-31T08:02:11;105.03;;;30.53;;
3503;SDS011;1766;53.490;10.174;2022-10-31T08:04:14;97.67;;;30.90;;
3503;SDS011;1766;53.490;10.174;2022-10-31T08:06:15;102.63;;;30.80;;
3503;SDS011;1766;53.490;10.174;2022-10-31T08:08:17;87.63;;;29.93;;
3503;SDS011;1766;53.490;10.174;2022-10-31T08:10:19;92.83;;;32.20;;
3503;SDS011;1766;53.490;10.174;2022-10-31T08:12:22;98.30;;;31.13;;
3503;SDS011;1766;53.490;10.174;2022-10-31T08:14:25;89.63;;;29.60;;
3503;SDS011;1766;53.490;10.174;2022-10-31T08:16:26;80.10;;;30.07;;
3503;SDS011;1766;53.490;10.174;2022-10-31T08:18:28;76.97;;;29.63;;
3503;SDS011;1766;53.490;10.174;2022-10-31T08:20:31;90.27;;;34.70;;
3503;SDS011;1766;53.490;10.174;2022-10-31T08:22:33;91.37;;;38.00;;
3503;SDS011;1766;53.490;10.174;2022-10-31T08:24:35;94.13;;;37.40;;
3503;SDS011;1766;53.490;10.174;2022-10-31T08:26:36;85.17;;;28.50;;
3503;SDS011;1766;53.490;10.174;2022-10-31T08:28:38;76.43;;;27.20;;
3503;SDS011;1766;53.490;10.174;2022-10-31T08:30:42;78.13;;;28.97;;
3503;SDS011;1766;53.490;10.174;2022-10-31T08:32:45;64.53;;;27.17;;
3503;SDS011;1766;53.490;10.174;2022-10-31T08:34:47;78.27;;;28.20;;
3503;SDS011;1766;53.490;10.174;2022-10-31T08:36:48;77.30;;;29.33;;
3503;SDS011;1766;53.490;10.174;2022-10-31T08:38:50;84.00;;;30.83;;
3503;SDS011;1766;53.490;10.174;2022-10-31T08:40:52;91.43;;;35.23;;
3503;SDS011;1766;53.490;10.174;2022-10-31T08:42:55;99.33;;;32.67;;
3503;SDS011;1766;53.490;10.174;2022-10-31T08:45:01;87.77;;;32.20;;
3503;SDS011;1766;53.490;10.174;2022-10-31T08:47:05;83.40;;;32.20;;
3503;SDS011;1766;53.490;10.174;2022-10-31T08:49:07;99.27;;;31.80;;
3503;SDS011;1766;53.490;10.174;2022-10-31T08:51:09;97.63;;;30.50;;
3503;SDS011;1766;53.490;10.174;2022-10-31T08:53:12;78.27;;;29.57;;
3503;SDS011;1766;53.490;10.174;2022-10-31T08:55:16;79.63;;;27.97;;
3503;SDS011;1766;53.490;10.174;2022-10-31T08:57:18;66.77;;;28.97;;
3503;SDS011;1766;53.490;10.174;2022-10-31T08:59:19;75.90;;;29.07;;
3503;SDS011;1766;53.490;10.174;2022-10-31T09:01:21;69.80;;;28.13;;
3503;SDS011;1766;53.490;10.174;2022-10-31T09:03:25;68.33;;;29.30;;
3503;SDS011;1766;53.490;10.174;2022-10-31T09:05:29;60.83;;;29.23;;
3503;SDS011;1766;53.490;10.174;2022-10-31T09:07:31;69.83;;;29.47;;
3503;SDS011;1766;53.490;10.174;2022-10-31T09:09:33;58.30;;;25.73;;
3503;SDS011;1766;53.490;10.174;2022-10-31T09:11:34;62.77;;;26.70;;
3503;SDS011;1766;53.490;10.174;2022-10-31T09:13:36;67.83;;;27.10;;
3503;SDS011;1766;53.490;10.174;2022-10-31T09:15:39;72.60;;;26.00;;
3503;SDS011;1766;53.490;10.174;2022-10-31T09:17:45;70.90;;;27.77;;
3503;SDS011;1766;53.490;10.174;2022-10-31T09:19:49;71.23;;;27.00;;
3503;SDS011;1766;53.490;10.174;2022-10-31T09:21:51;64.93;;;26.70;;
3503;SDS011;1766;53.490;10.174;2022-10-31T09:23:54;65.67;;;25.90;;
3503;SDS011;1766;53.490;10.174;2022-10-31T09:25:58;70.70;;;25.97;;
3503;SDS011;1766;53.490;10.174;2022-10-31T09:28:02;67.10;;;27.00;;
3503;SDS011;1766;53.490;10.174;2022-10-31T09:30:06;62.40;;;25.57;;
3503;SDS011;1766;53.490;10.174;2022-10-31T09:32:09;59.97;;;24.17;;
3503;SDS011;1766;53.490;10.174;2022-10-31T09:34:11;57.13;;;23.20;;
3503;SDS011;1766;53.490;10.174;2022-10-31T09:36:14;51.63;;;23.87;;
3503;SDS011;1766;53.490;10.174;2022-10-31T09:38:16;53.03;;;24.00;;
3503;SDS011;1766;53.490;10.174;2022-10-31T09:40:20;48.40;;;22.27;;
3503;SDS011;1766;53.490;10.174;2022-10-31T09:42:26;46.30;;;22.53;;
3503;SDS011;1766;53.490;10.174;2022-10-31T09:44:46;50.60;;;23.00;;
3503;SDS011;1766;53.490;10.174;2022-10-31T09:46:58;56.53;;;23.63;;
3503;SDS011;1766;53.490;10.174;2022-10-31T09:49:17;48.77;;;22.63;;
3503;SDS011;1766;53.490;10.174;2022-10-31T09:51:34;51.67;;;24.60;;
3503;SDS011;1766;53.490;10.174;2022-10-31T09:53:40;45.47;;;21.60;;
3503;SDS011;1766;53.490;10.174;2022-10-31T09:55:46;45.53;;;21.40;;
3503;SDS011;1766;53.490;10.174;2022-10-31T09:57:50;44.73;;;22.97;;
3503;SDS011;1766;53.490;10.174;2022-10-31T09:59:52;45.63;;;21.67;;
3503;SDS011;1766;53.490;10.174;2022-10-31T10:01:54;49.60;;;22.00;;
3503;SDS011;1766;53.490;10.174;2022-10-31T10:04:02;45.73;;;21.73;;
3503;SDS011;1766;53.490;10.174;2022-10-31T10:06:18;42.43;;;20.80;;
3503;SDS011;1766;53.490;10.174;2022-10-31T10:08:26;44.60;;;23.30;;
3503;SDS011;1766;53.490;10.174;2022-10-31T10:10:34;47.30;;;22.33;;
3503;SDS011;1766;53.490;10.174;2022-10-31T10:13:00;45.23;;;20.80;;
3503;SDS011;1766;53.490;10.174;2022-10-31T10:15:21;43.13;;;22.13;;
3503;SDS011;1766;53.490;10.174;2022-10-31T10:17:38;48.33;;;21.23;;
3503;SDS011;1766;53.490;10.174;2022-10-31T10:19:51;42.00;;;21.47;;
3503;SDS011;1766;53.490;10.174;2022-10-31T10:22:10;42.27;;;21.77;;
3503;SDS011;1766;53.490;10.174;2022-10-31T10:24:23;42.23;;;22.83;;
3503;SDS011;1766;53.490;10.174;2022-10-31T10:26:36;38.10;;;21.60;;
3503;SDS011;1766;53.490;10.174;2022-10-31T10:28:40;40.07;;;21.27;;
3503;SDS011;1766;53.490;10.174;2022-10-31T10:30:46;40.40;;;21.93;;
3503;SDS011;1766;53.490;10.174;2022-10-31T10:32:52;35.53;;;20.47;;
3503;SDS011;1766;53.490;10.174;2022-10-31T10:34:58;38.33;;;21.33;;
3503;SDS011;1766;53.490;10.174;2022-10-31T10:37:10;36.50;;;20.50;;
3503;SDS011;1766;53.490;10.174;2022-10-31T10:39:27;37.30;;;20.50;;
3503;SDS011;1766;53.490;10.174;2022-10-31T10:41:36;43.37;;;19.77;;
3503;SDS011;1766;53.490;10.174;2022-10-31T10:43:39;37.47;;;20.13;;
3503;SDS011;1766;53.490;10.174;2022-10-31T10:45:40;41.23;;;21.10;;
3503;SDS011;1766;53.490;10.174;2022-10-31T10:47:58;37.10;;;20.03;;
3503;SDS011;1766;53.490;10.174;2022-10-31T10:50:11;34.47;;;18.93;;
3503;SDS011;1766;53.490;10.174;2022-10-31T10:52:21;33.47;;;18.77;;
3503;SDS011;1766;53.490;10.174;2022-10-31T10:54:38;32.53;;;19.23;;
3503;SDS011;1766;53.490;10.174;2022-10-31T10:56:49;36.80;;;19.57;;
3503;SDS011;1766;53.490;10.174;2022-10-31T10:59:04;38.30;;;19.03;;
3503;SDS011;1766;53.490;10.174;2022-10-31T11:01:10;34.07;;;19.20;;
3503;SDS011;1766;53.490;10.174;2022-10-31T11:03:23;38.00;;;20.77;;
3503;SDS011;1766;53.490;10.174;2022-10-31T11:05:26;40.33;;;20.27;;
3503;SDS011;1766;53.490;10.174;2022-10-31T11:07:37;31.53;;;18.80;;
3503;SDS011;1766;53.490;10.174;2022-10-31T11:09:41;36.23;;;19.10;;
3503;SDS011;1766;53.490;10.174;2022-10-31T11:11:44;33.47;;;18.13;;
3503;SDS011;1766;53.490;10.174;2022-10-31T11:13:47;33.83;;;19.20;;
3503;SDS011;1766;53.490;10.174;2022-10-31T11:15:53;34.07;;;19.87;;
3503;SDS011;1766;53.490;10.174;2022-10-31T11:17:59;29.90;;;18.60;;
3503;SDS011;1766;53.490;10.174;2022-10-31T11:20:03;38.73;;;20.10;;
3503;SDS011;1766;53.490;10.174;2022-10-31T11:22:08;32.07;;;18.90;;
3503;SDS011;1766;53.490;10.174;2022-10-31T11:24:18;30.83;;;18.17;;
3503;SDS011;1766;53.490;10.174;2022-10-31T11:26:23;32.03;;;19.07;;
3503;SDS011;1766;53.490;10.174;2022-10-31T11:28:25;28.27;;;17.37;;
3503;SDS011;1766;53.490;10.174;2022-10-31T11:30:30;32.10;;;18.93;;
3503;SDS011;1766;53.490;10.174;2022-10-31T11:32:47;31.77;;;19.23;;
3503;SDS011;1766;53.490;10.174;2022-10-31T11:34:53;29.60;;;18.10;;
3503;SDS011;1766;53.490;10.174;2022-10-31T11:37:01;30.13;;;17.63;;
3503;SDS011;1766;53.490;10.174;2022-10-31T11:39:14;33.50;;;18.57;;
3503;SDS011;1766;53.490;10.174;2022-10-31T11:41:24;27.43;;;17.17;;
3503;SDS011;1766;53.490;10.174;2022-10-31T11:43:29;27.57;;;17.33;;
3503;SDS011;1766;53.490;10.174;2022-10-31T11:45:32;33.67;;;18.53;;
3503;SDS011;1766;53.490;10.174;2022-10-31T11:47:36;30.00;;;18.60;;
3503;SDS011;1766;53.490;10.174;2022-10-31T11:49:43;29.80;;;17.90;;
3503;SDS011;1766;53.490;10.174;2022-10-31T11:51:50;29.97;;;18.10;;
3503;SDS011;1766;53.490;10.174;2022-10-31T11:53:56;31.47;;;18.33;;
3503;SDS011;1766;53.490;10.174;2022-10-31T11:56:03;28.80;;;17.37;;
3503;SDS011;1766;53.490;10.174;2022-10-31T11:58:21;29.93;;;19.07;;
3503;SDS011;1766;53.490;10.174;2022-10-31T12:00:25;25.70;;;17.17;;
3503;SDS011;1766;53.490;10.174;2022-10-31T12:02:30;25.37;;;16.63;;
3503;SDS011;1766;53.490;10.174;2022-10-31T12:04:35;28.33;;;15.30;;
3503;SDS011;1766;53.490;10.174;2022-10-31T12:06:43;26.07;;;16.03;;
3503;SDS011;1766;53.490;10.174;2022-10-31T12:08:47;23.33;;;14.77;;
3503;SDS011;1766;53.490;10.174;2022-10-31T12:10:51;22.60;;;15.20;;
3503;SDS011;1766;53.490;10.174;2022-10-31T12:13:02;20.63;;;13.80;;
3503;SDS011;1766;53.490;10.174;2022-10-31T12:15:27;23.67;;;14.70;;
3503;SDS011;1766;53.490;10.174;2022-10-31T12:17:34;24.33;;;15.00;;
3503;SDS011;1766;53.490;10.174;2022-10-31T12:19:46;25.07;;;14.37;;
3503;SDS011;1766;53.490;10.174;2022-10-31T12:22:03;17.60;;;13.07;;